Terminal Aerodrome Forecast
Issued by NWS

Home | Current Version | Previous Version | Text Only | Print | Product List | Glossary Off
Versions: 1 2 3 4 5 6 7 8 9 10 11 12

000
FTUS43 KMPX 211120
TAFRWF
TAF
KRWF 211120Z 2112/2212 30012KT P6SM SCT110
     FM211500 32014G22KT P6SM FEW100
     FM220000 33006KT P6SM SKC=

USA.gov is the U.S. government's official web portal to all federal, state and local government web resources and services.